Terminal Aerodrome Forecast
Issued by NWS

Home | Current Version | Previous Version | Text Only | Print | Product List | Glossary On
Versions: 1 2 3 4 5 6 7 8 9 10 11 12 13 14 15 16 17 18 19 20 21
000
FTUS46 KPDT 191321 AAA
TAFRDM
TAF AMD
KRDM 191321Z 1913/2012 22006KT P6SM -SHRA SCT040 BKN060
     FM191700 29016G26KT P6SM VCSH SCT040 BKN060
     FM200500 21010KT P6SM -RA BKN040 OVC050=

USA.gov is the U.S. government's official web portal to all federal, state and local government web resources and services.